sensor_id;sensor_type;location;lat;lon;timestamp;pressure;altitude;pressure_sealevel;temperature;humidity
73558;BME280;61829;53.286;10.434;2023-10-31T00:00:23;99197.50;;;12.22;100.00
73558;BME280;61829;53.286;10.434;2023-10-31T00:03:09;99190.47;;;12.21;100.00
73558;BME280;61829;53.286;10.434;2023-10-31T00:05:36;99190.47;;;12.21;100.00
73558;BME280;61829;53.286;10.434;2023-10-31T00:08:01;99183.66;;;12.19;100.00
73558;BME280;61829;53.286;10.434;2023-10-31T00:10:27;99190.97;;;12.18;100.00
73558;BME280;61829;53.286;10.434;2023-10-31T00:12:53;99183.66;;;12.19;100.00
73558;BME280;61829;53.286;10.434;2023-10-31T00:15:19;99179.34;;;12.18;100.00
73558;BME280;61829;53.286;10.434;2023-10-31T00:17:45;99178.28;;;12.19;100.00
73558;BME280;61829;53.286;10.434;2023-10-31T00:20:11;99184.47;;;12.19;100.00
73558;BME280;61829;53.286;10.434;2023-10-31T00:22:36;99176.63;;;12.18;100.00
73558;BME280;61829;53.286;10.434;2023-10-31T00:25:02;99162.28;;;12.17;100.00
73558;BME280;61829;53.286;10.434;2023-10-31T00:27:28;99167.47;;;12.19;100.00
73558;BME280;61829;53.286;10.434;2023-10-31T00:29:54;99159.59;;;12.17;100.00
73558;BME280;61829;53.286;10.434;2023-10-31T00:32:20;99159.59;;;12.17;100.00
73558;BME280;61829;53.286;10.434;2023-10-31T00:34:45;99159.84;;;12.16;100.00
73558;BME280;61829;53.286;10.434;2023-10-31T00:37:11;99161.72;;;12.15;100.00
73558;BME280;61829;53.286;10.434;2023-10-31T00:39:37;99151.75;;;12.16;100.00
73558;BME280;61829;53.286;10.434;2023-10-31T00:42:03;99151.75;;;12.16;100.00
73558;BME280;61829;53.286;10.434;2023-10-31T00:44:29;99150.66;;;12.17;100.00
73558;BME280;61829;53.286;10.434;2023-10-31T00:46:55;99150.66;;;12.17;100.00
73558;BME280;61829;53.286;10.434;2023-10-31T00:49:20;99143.63;;;12.16;100.00
73558;BME280;61829;53.286;10.434;2023-10-31T00:51:46;99140.69;;;12.17;100.00
73558;BME280;61829;53.286;10.434;2023-10-31T00:54:12;99139.88;;;12.17;100.00
73558;BME280;61829;53.286;10.434;2023-10-31T00:56:37;99139.06;;;12.16;100.00
73558;BME280;61829;53.286;10.434;2023-10-31T00:59:03;99132.38;;;12.19;100.00
73558;BME280;61829;53.286;10.434;2023-10-31T01:01:29;99134.25;;;12.18;100.00
73558;BME280;61829;53.286;10.434;2023-10-31T01:03:55;99133.44;;;12.18;100.00
73558;BME280;61829;53.286;10.434;2023-10-31T01:06:21;99141.53;;;12.18;100.00
73558;BME280;61829;53.286;10.434;2023-10-31T01:08:46;99132.59;;;12.17;100.00
73558;BME280;61829;53.286;10.434;2023-10-31T01:11:13;99136.94;;;12.18;100.00
73558;BME280;61829;53.286;10.434;2023-10-31T01:13:39;99130.72;;;12.18;100.00
73558;BME280;61829;53.286;10.434;2023-10-31T01:16:05;99133.19;;;12.19;100.00
73558;BME280;61829;53.286;10.434;2023-10-31T01:18:30;99133.19;;;12.19;100.00
73558;BME280;61829;53.286;10.434;2023-10-31T01:20:56;99129.44;;;12.20;100.00
73558;BME280;61829;53.286;10.434;2023-10-31T01:23:22;99131.06;;;12.21;100.00
73558;BME280;61829;53.286;10.434;2023-10-31T01:25:48;99125.66;;;12.21;100.00
73558;BME280;61829;53.286;10.434;2023-10-31T01:28:14;99129.19;;;12.22;100.00
73558;BME280;61829;53.286;10.434;2023-10-31T01:30:40;99122.72;;;12.23;100.00
73558;BME280;61829;53.286;10.434;2023-10-31T01:33:05;99121.91;;;12.22;100.00
73558;BME280;61829;53.286;10.434;2023-10-31T01:35:31;99126.47;;;12.22;100.00
73558;BME280;61829;53.286;10.434;2023-10-31T01:37:57;99119.44;;;12.21;100.00
73558;BME280;61829;53.286;10.434;2023-10-31T01:40:23;99127.56;;;12.21;100.00
73558;BME280;61829;53.286;10.434;2023-10-31T01:42:49;99123.19;;;12.20;100.00
73558;BME280;61829;53.286;10.434;2023-10-31T01:45:15;99125.66;;;12.21;100.00
73558;BME280;61829;53.286;10.434;2023-10-31T01:47:42;99110.53;;;12.20;100.00
73558;BME280;61829;53.286;10.434;2023-10-31T01:50:11;99110.28;;;12.22;100.00
73558;BME280;61829;53.286;10.434;2023-10-31T01:52:37;99111.09;;;12.22;100.00
73558;BME280;61829;53.286;10.434;2023-10-31T01:55:04;99095.38;;;12.19;100.00
73558;BME280;61829;53.286;10.434;2023-10-31T01:57:30;99095.38;;;12.19;100.00
73558;BME280;61829;53.286;10.434;2023-10-31T01:59:56;99095.63;;;12.18;100.00
73558;BME280;61829;53.286;10.434;2023-10-31T02:02:23;99096.66;;;12.17;100.00
73558;BME280;61829;53.286;10.434;2023-10-31T02:04:51;99087.53;;;12.18;100.00
73558;BME280;61829;53.286;10.434;2023-10-31T02:07:16;99085.88;;;12.17;100.00
73558;BME280;61829;53.286;10.434;2023-10-31T02:09:42;99090.69;;;12.15;100.00
73558;BME280;61829;53.286;10.434;2023-10-31T02:12:08;99082.59;;;12.15;100.00
73558;BME280;61829;53.286;10.434;2023-10-31T02:14:34;99079.91;;;12.15;100.00
73558;BME280;61829;53.286;10.434;2023-10-31T02:17:00;99067.22;;;12.15;100.00
73558;BME280;61829;53.286;10.434;2023-10-31T02:19:26;99060.16;;;12.14;100.00
73558;BME280;61829;53.286;10.434;2023-10-31T02:21:52;99062.03;;;12.13;100.00
73558;BME280;61829;53.286;10.434;2023-10-31T02:24:17;99049.94;;;12.16;100.00
73558;BME280;61829;53.286;10.434;2023-10-31T02:26:43;99051.84;;;12.16;100.00
73558;BME280;61829;53.286;10.434;2023-10-31T02:29:09;99038.31;;;12.16;100.00
73558;BME280;61829;53.286;10.434;2023-10-31T02:31:35;99039.63;;;12.13;100.00
73558;BME280;61829;53.286;10.434;2023-10-31T02:34:00;99040.22;;;12.15;100.00
73558;BME280;61829;53.286;10.434;2023-10-31T02:36:26;99038.31;;;12.16;100.00
73558;BME280;61829;53.286;10.434;2023-10-31T02:38:52;99041.03;;;12.16;100.00
73558;BME280;61829;53.286;10.434;2023-10-31T02:41:18;99027.28;;;12.17;100.00
73558;BME280;61829;53.286;10.434;2023-10-31T02:43:44;99029.16;;;12.17;100.00
73558;BME280;61829;53.286;10.434;2023-10-31T02:46:10;99033.25;;;12.19;100.00
73558;BME280;61829;53.286;10.434;2023-10-31T02:48:38;99032.22;;;12.20;100.00
73558;BME280;61829;53.286;10.434;2023-10-31T02:51:06;99031.97;;;12.22;100.00
73558;BME280;61829;53.286;10.434;2023-10-31T02:53:33;99024.34;;;12.19;100.00
73558;BME280;61829;53.286;10.434;2023-10-31T02:55:59;99029.25;;;12.22;100.00
73558;BME280;61829;53.286;10.434;2023-10-31T02:58:25;99034.66;;;12.22;100.00
73558;BME280;61829;53.286;10.434;2023-10-31T03:00:51;99027.63;;;12.21;100.00
73558;BME280;61829;53.286;10.434;2023-10-31T03:03:17;99030.91;;;12.23;100.00
73558;BME280;61829;53.286;10.434;2023-10-31T03:05:43;99035.25;;;12.24;100.00
73558;BME280;61829;53.286;10.434;2023-10-31T03:08:08;99026.91;;;12.25;100.00
73558;BME280;61829;53.286;10.434;2023-10-31T03:10:37;99023.38;;;12.25;100.00
73558;BME280;61829;53.286;10.434;2023-10-31T03:13:03;99015.06;;;12.26;100.00
73558;BME280;61829;53.286;10.434;2023-10-31T03:15:29;99019.38;;;12.27;100.00
73558;BME280;61829;53.286;10.434;2023-10-31T03:17:54;99012.91;;;12.28;100.00
73558;BME280;61829;53.286;10.434;2023-10-31T03:20:20;99009.41;;;12.28;100.00
73558;BME280;61829;53.286;10.434;2023-10-31T03:22:46;99004.59;;;12.30;100.00
73558;BME280;61829;53.286;10.434;2023-10-31T03:25:12;99001.88;;;12.30;100.00
73558;BME280;61829;53.286;10.434;2023-10-31T03:27:37;99001.88;;;12.30;100.00
73558;BME280;61829;53.286;10.434;2023-10-31T03:30:04;98996.72;;;12.28;100.00
73558;BME280;61829;53.286;10.434;2023-10-31T03:32:30;98999.75;;;12.32;100.00
73558;BME280;61829;53.286;10.434;2023-10-31T03:34:56;99000.31;;;12.34;100.00
73558;BME280;61829;53.286;10.434;2023-10-31T03:37:28;98993.06;;;12.34;100.00
73558;BME280;61829;53.286;10.434;2023-10-31T03:39:53;98988.22;;;12.36;100.00
73558;BME280;61829;53.286;10.434;2023-10-31T03:42:19;98986.91;;;12.39;100.00
73558;BME280;61829;53.286;10.434;2023-10-31T03:44:45;98992.31;;;12.39;100.00
73558;BME280;61829;53.286;10.434;2023-10-31T03:47:11;98992.31;;;12.39;100.00
73558;BME280;61829;53.286;10.434;2023-10-31T03:49:40;98997.25;;;12.42;100.00
73558;BME280;61829;53.286;10.434;2023-10-31T03:52:06;98991.28;;;12.40;100.00
73558;BME280;61829;53.286;10.434;2023-10-31T03:54:32;98992.69;;;12.43;100.00
73558;BME280;61829;53.286;10.434;2023-10-31T03:56:58;98988.09;;;12.43;100.00
73558;BME280;61829;53.286;10.434;2023-10-31T03:59:24;98988.91;;;12.44;100.00
73558;BME280;61829;53.286;10.434;2023-10-31T04:01:49;98985.13;;;12.45;100.00
73558;BME280;61829;53.286;10.434;2023-10-31T04:04:15;98973.50;;;12.44;100.00
73558;BME280;61829;53.286;10.434;2023-10-31T04:06:41;98973.28;;;12.46;100.00
73558;BME280;61829;53.286;10.434;2023-10-31T04:09:07;98979.25;;;12.48;100.00
73558;BME280;61829;53.286;10.434;2023-10-31T04:11:33;98982.78;;;12.48;100.00
73558;BME280;61829;53.286;10.434;2023-10-31T04:13:59;98977.94;;;12.50;100.00
73558;BME280;61829;53.286;10.434;2023-10-31T04:16:24;98983.34;;;12.50;100.00
73558;BME280;61829;53.286;10.434;2023-10-31T04:18:50;98984.50;;;12.54;100.00
73558;BME280;61829;53.286;10.434;2023-10-31T04:21:16;98973.53;;;12.61;100.00
73558;BME280;61829;53.286;10.434;2023-10-31T04:23:42;98969.94;;;12.55;100.00
73558;BME280;61829;53.286;10.434;2023-10-31T04:26:08;98973.69;;;12.54;100.00
73558;BME280;61829;53.286;10.434;2023-10-31T04:28:33;98965.59;;;12.54;100.00
73558;BME280;61829;53.286;10.434;2023-10-31T04:31:02;98966.16;;;12.56;100.00
73558;BME280;61829;53.286;10.434;2023-10-31T04:33:29;98966.75;;;12.58;100.00
73558;BME280;61829;53.286;10.434;2023-10-31T04:35:55;98967.81;;;12.57;100.00
73558;BME280;61829;53.286;10.434;2023-10-31T04:38:21;98964.03;;;12.58;100.00
73558;BME280;61829;53.286;10.434;2023-10-31T04:40:46;98955.94;;;12.58;100.00
73558;BME280;61829;53.286;10.434;2023-10-31T04:43:12;98959.22;;;12.61;100.00
73558;BME280;61829;53.286;10.434;2023-10-31T04:45:38;98961.09;;;12.60;100.00
73558;BME280;61829;53.286;10.434;2023-10-31T04:48:04;98954.41;;;12.63;100.00
73558;BME280;61829;53.286;10.434;2023-10-31T04:50:30;98954.94;;;12.65;100.00
73558;BME280;61829;53.286;10.434;2023-10-31T04:52:55;98945.78;;;12.66;100.00
73558;BME280;61829;53.286;10.434;2023-10-31T04:55:21;98943.09;;;12.66;100.00
73558;BME280;61829;53.286;10.434;2023-10-31T04:57:47;98937.69;;;12.66;100.00
73558;BME280;61829;53.286;10.434;2023-10-31T05:00:13;98932.28;;;12.66;100.00
73558;BME280;61829;53.286;10.434;2023-10-31T05:02:39;98931.69;;;12.64;100.00
73558;BME280;61829;53.286;10.434;2023-10-31T05:05:05;98935.00;;;12.66;100.00
73558;BME280;61829;53.286;10.434;2023-10-31T05:07:31;98939.63;;;12.70;100.00
73558;BME280;61829;53.286;10.434;2023-10-31T05:09:58;98940.44;;;12.71;100.00
73558;BME280;61829;53.286;10.434;2023-10-31T05:12:25;98941.28;;;12.71;100.00
73558;BME280;61829;53.286;10.434;2023-10-31T05:14:50;98947.50;;;12.72;100.00
73558;BME280;61829;53.286;10.434;2023-10-31T05:17:16;98944.00;;;12.71;100.00
73558;BME280;61829;53.286;10.434;2023-10-31T05:19:42;98944.81;;;12.72;100.00
73558;BME280;61829;53.286;10.434;2023-10-31T05:22:08;98942.91;;;12.72;100.00
73558;BME280;61829;53.286;10.434;2023-10-31T05:24:33;98938.91;;;12.75;100.00
73558;BME280;61829;53.286;10.434;2023-10-31T05:26:59;98945.72;;;12.77;100.00
73558;BME280;61829;53.286;10.434;2023-10-31T05:29:25;98941.13;;;12.78;100.00
73558;BME280;61829;53.286;10.434;2023-10-31T05:31:51;98938.41;;;12.78;100.00
73558;BME280;61829;53.286;10.434;2023-10-31T05:34:16;98931.94;;;12.79;100.00
73558;BME280;61829;53.286;10.434;2023-10-31T05:36:42;98931.94;;;12.79;100.00
73558;BME280;61829;53.286;10.434;2023-10-31T05:39:08;98938.19;;;12.79;100.00
73558;BME280;61829;53.286;10.434;2023-10-31T05:41:34;98930.63;;;12.81;100.00
73558;BME280;61829;53.286;10.434;2023-10-31T05:44:00;98934.41;;;12.80;100.00
73558;BME280;61829;53.286;10.434;2023-10-31T05:46:41;98936.28;;;12.80;100.00
73558;BME280;61829;53.286;10.434;2023-10-31T05:49:07;98933.34;;;12.81;100.00
73558;BME280;61829;53.286;10.434;2023-10-31T05:51:34;98930.88;;;12.80;100.00
73558;BME280;61829;53.286;10.434;2023-10-31T05:54:00;98932.28;;;12.83;100.00
73558;BME280;61829;53.286;10.434;2023-10-31T05:56:26;98927.69;;;12.83;100.00
73558;BME280;61829;53.286;10.434;2023-10-31T05:58:52;98929.31;;;12.84;100.00
73558;BME280;61829;53.286;10.434;2023-10-31T06:01:18;98928.28;;;12.85;100.00
73558;BME280;61829;53.286;10.434;2023-10-31T06:03:44;98932.84;;;12.85;100.00
73558;BME280;61829;53.286;10.434;2023-10-31T06:06:11;98933.69;;;12.85;100.00
73558;BME280;61829;53.286;10.434;2023-10-31T06:08:38;98943.09;;;12.83;100.00
73558;BME280;61829;53.286;10.434;2023-10-31T06:11:04;98947.44;;;12.84;100.00
73558;BME280;61829;53.286;10.434;2023-10-31T06:13:30;98953.06;;;12.82;100.00
73558;BME280;61829;53.286;10.434;2023-10-31T06:15:57;98955.78;;;12.82;100.00
73558;BME280;61829;53.286;10.434;2023-10-31T06:18:23;98952.50;;;12.80;100.00
73558;BME280;61829;53.286;10.434;2023-10-31T06:20:49;98949.00;;;12.79;100.00
73558;BME280;61829;53.286;10.434;2023-10-31T06:23:15;98942.75;;;12.79;100.00
73558;BME280;61829;53.286;10.434;2023-10-31T06:25:41;98949.47;;;12.76;100.00
73558;BME280;61829;53.286;10.434;2023-10-31T06:28:06;98947.50;;;12.72;100.00
73558;BME280;61829;53.286;10.434;2023-10-31T06:30:32;98963.72;;;12.72;100.00
73558;BME280;61829;53.286;10.434;2023-10-31T06:32:58;98958.47;;;12.65;100.00
73558;BME280;61829;53.286;10.434;2023-10-31T06:35:25;98967.31;;;12.61;100.00
73558;BME280;61829;53.286;10.434;2023-10-31T06:37:51;98975.34;;;12.55;100.00
73558;BME280;61829;53.286;10.434;2023-10-31T06:40:18;98987.69;;;12.51;100.00
73558;BME280;61829;53.286;10.434;2023-10-31T06:42:43;98979.50;;;12.46;100.00
73558;BME280;61829;53.286;10.434;2023-10-31T06:45:09;98976.22;;;12.44;100.00
73558;BME280;61829;53.286;10.434;2023-10-31T06:47:35;98991.75;;;12.37;100.00
73558;BME280;61829;53.286;10.434;2023-10-31T06:50:01;98989.78;;;12.32;100.00
73558;BME280;61829;53.286;10.434;2023-10-31T06:52:27;98984.59;;;12.31;100.00
73558;BME280;61829;53.286;10.434;2023-10-31T06:54:54;98987.22;;;12.26;100.00
73558;BME280;61829;53.286;10.434;2023-10-31T06:57:19;98991.78;;;12.25;100.00
73558;BME280;61829;53.286;10.434;2023-10-31T06:59:45;98990.16;;;12.24;100.00
73558;BME280;61829;53.286;10.434;2023-10-31T07:02:12;98993.00;;;12.18;100.00
73558;BME280;61829;53.286;10.434;2023-10-31T07:04:37;98987.63;;;12.18;100.00
73558;BME280;61829;53.286;10.434;2023-10-31T07:07:03;98994.53;;;12.13;100.00
73558;BME280;61829;53.286;10.434;2023-10-31T07:09:29;98992.31;;;12.10;100.00
73558;BME280;61829;53.286;10.434;2023-10-31T07:11:55;99003.28;;;12.04;99.80
73558;BME280;61829;53.286;10.434;2023-10-31T07:14:20;98992.13;;;12.00;99.62
73558;BME280;61829;53.286;10.434;2023-10-31T07:16:47;99003.16;;;11.99;98.86
73558;BME280;61829;53.286;10.434;2023-10-31T07:19:14;99007.16;;;11.96;99.11
73558;BME280;61829;53.286;10.434;2023-10-31T07:21:40;99013.63;;;11.95;98.88
73558;BME280;61829;53.286;10.434;2023-10-31T07:24:06;99010.34;;;11.93;99.15
73558;BME280;61829;53.286;10.434;2023-10-31T07:26:35;99010.22;;;11.88;99.04
73558;BME280;61829;53.286;10.434;2023-10-31T07:29:01;99012.31;;;11.86;99.44
73558;BME280;61829;53.286;10.434;2023-10-31T07:31:26;99016.31;;;11.83;99.67
73558;BME280;61829;53.286;10.434;2023-10-31T07:33:53;99024.06;;;11.80;100.00
73558;BME280;61829;53.286;10.434;2023-10-31T07:36:18;99013.50;;;11.78;100.00
73558;BME280;61829;53.286;10.434;2023-10-31T07:38:44;99020.53;;;11.79;100.00
73558;BME280;61829;53.286;10.434;2023-10-31T07:41:10;99017.25;;;11.77;100.00
73558;BME280;61829;53.286;10.434;2023-10-31T07:43:36;99017.84;;;11.79;100.00
73558;BME280;61829;53.286;10.434;2023-10-31T07:46:02;99011.38;;;11.80;100.00
73558;BME280;61829;53.286;10.434;2023-10-31T07:48:28;99017.13;;;11.84;100.00
73558;BME280;61829;53.286;10.434;2023-10-31T07:50:53;99022.16;;;11.80;100.00
73558;BME280;61829;53.286;10.434;2023-10-31T07:53:19;99023.34;;;11.84;100.00
73558;BME280;61829;53.286;10.434;2023-10-31T07:55:46;99030.84;;;11.82;99.89
73558;BME280;61829;53.286;10.434;2023-10-31T07:58:12;99021.72;;;11.83;99.87
73558;BME280;61829;53.286;10.434;2023-10-31T08:00:40;99025.94;;;11.79;99.91
73558;BME280;61829;53.286;10.434;2023-10-31T08:03:06;99022.41;;;11.79;99.74
73558;BME280;61829;53.286;10.434;2023-10-31T08:05:32;99027.34;;;11.82;99.91
73558;BME280;61829;53.286;10.434;2023-10-31T08:07:58;99032.16;;;11.80;99.47
73558;BME280;61829;53.286;10.434;2023-10-31T08:10:24;99024.06;;;11.80;98.64
73558;BME280;61829;53.286;10.434;2023-10-31T08:12:49;99036.72;;;11.79;98.52
73558;BME280;61829;53.286;10.434;2023-10-31T08:15:15;99033.91;;;11.74;98.27
73558;BME280;61829;53.286;10.434;2023-10-31T08:17:42;99024.19;;;11.73;98.34
73558;BME280;61829;53.286;10.434;2023-10-31T08:20:08;99030.66;;;11.72;98.05
73558;BME280;61829;53.286;10.434;2023-10-31T08:22:36;99026.28;;;11.71;97.88
73558;BME280;61829;53.286;10.434;2023-10-31T08:25:02;99029.81;;;11.72;97.67
73558;BME280;61829;53.286;10.434;2023-10-31T08:27:52;99031.22;;;11.74;98.23
73558;BME280;61829;53.286;10.434;2023-10-31T08:30:18;99026.75;;;11.80;97.47
73558;BME280;61829;53.286;10.434;2023-10-31T08:32:45;99030.41;;;11.74;97.08
73558;BME280;61829;53.286;10.434;2023-10-31T08:35:12;99025.00;;;11.74;96.58
73558;BME280;61829;53.286;10.434;2023-10-31T08:37:38;99029.59;;;11.73;96.76
73558;BME280;61829;53.286;10.434;2023-10-31T08:40:04;99022.56;;;11.72;96.72
73558;BME280;61829;53.286;10.434;2023-10-31T08:42:30;99026.41;;;11.76;96.56
73558;BME280;61829;53.286;10.434;2023-10-31T08:44:56;99037.53;;;11.80;96.11
73558;BME280;61829;53.286;10.434;2023-10-31T08:47:22;99035.78;;;11.74;95.43
73558;BME280;61829;53.286;10.434;2023-10-31T08:49:49;99033.09;;;11.74;95.36
73558;BME280;61829;53.286;10.434;2023-10-31T08:52:15;99044.38;;;11.71;94.35
73558;BME280;61829;53.286;10.434;2023-10-31T08:54:41;99041.66;;;11.71;94.77
73558;BME280;61829;53.286;10.434;2023-10-31T08:57:07;99040.59;;;11.72;94.05
73558;BME280;61829;53.286;10.434;2023-10-31T08:59:33;99040.03;;;11.69;94.67
73558;BME280;61829;53.286;10.434;2023-10-31T09:01:59;99022.91;;;11.64;94.38
73558;BME280;61829;53.286;10.434;2023-10-31T09:04:24;99037.91;;;11.60;94.49
73558;BME280;61829;53.286;10.434;2023-10-31T09:06:50;99039.69;;;11.54;94.37
73558;BME280;61829;53.286;10.434;2023-10-31T09:09:16;99034.75;;;11.51;94.46
73558;BME280;61829;53.286;10.434;2023-10-31T09:11:42;99036.63;;;11.51;94.45
73558;BME280;61829;53.286;10.434;2023-10-31T09:14:07;99043.31;;;11.48;94.21
73558;BME280;61829;53.286;10.434;2023-10-31T09:16:36;99057.50;;;11.43;94.14
73558;BME280;61829;53.286;10.434;2023-10-31T09:19:02;99056.69;;;11.43;94.31
73558;BME280;61829;53.286;10.434;2023-10-31T09:21:28;99040.16;;;11.39;94.55
73558;BME280;61829;53.286;10.434;2023-10-31T09:23:53;99051.63;;;11.35;94.86
73558;BME280;61829;53.286;10.434;2023-10-31T09:26:19;99065.38;;;11.33;95.07
73558;BME280;61829;53.286;10.434;2023-10-31T09:28:45;99076.97;;;11.34;95.03
73558;BME280;61829;53.286;10.434;2023-10-31T09:31:18;99081.91;;;11.37;95.33
73558;BME280;61829;53.286;10.434;2023-10-31T09:33:47;99075.44;;;11.38;94.95
73558;BME280;61829;53.286;10.434;2023-10-31T09:36:13;99079.19;;;11.37;95.11
73558;BME280;61829;53.286;10.434;2023-10-31T09:38:40;99092.22;;;11.40;95.33
73558;BME280;61829;53.286;10.434;2023-10-31T09:41:06;99092.22;;;11.40;94.69
73558;BME280;61829;53.286;10.434;2023-10-31T09:43:32;99101.84;;;11.48;94.96
73558;BME280;61829;53.286;10.434;2023-10-31T09:45:58;99094.81;;;11.58;94.37
73558;BME280;61829;53.286;10.434;2023-10-31T09:48:26;99111.13;;;11.63;93.43
73558;BME280;61829;53.286;10.434;2023-10-31T09:50:52;99116.53;;;11.63;93.23
73558;BME280;61829;53.286;10.434;2023-10-31T09:53:19;99134.47;;;11.69;93.13
73558;BME280;61829;53.286;10.434;2023-10-31T09:55:46;99135.03;;;11.72;92.10
73558;BME280;61829;53.286;10.434;2023-10-31T09:58:12;99146.22;;;11.75;91.89
73558;BME280;61829;53.286;10.434;2023-10-31T10:00:38;99158.63;;;11.76;92.06
73558;BME280;61829;53.286;10.434;2023-10-31T10:03:07;99161.94;;;11.78;91.62
73558;BME280;61829;53.286;10.434;2023-10-31T10:05:36;99161.34;;;11.76;91.12
73558;BME280;61829;53.286;10.434;2023-10-31T10:08:06;99174.63;;;11.78;90.99
73558;BME280;61829;53.286;10.434;2023-10-31T10:10:35;99177.19;;;11.84;91.19
73558;BME280;61829;53.286;10.434;2023-10-31T10:13:02;99184.63;;;11.89;91.34
73558;BME280;61829;53.286;10.434;2023-10-31T10:15:29;99193.53;;;11.89;91.70
73558;BME280;61829;53.286;10.434;2023-10-31T10:17:54;99203.06;;;11.92;92.54
73558;BME280;61829;53.286;10.434;2023-10-31T10:20:21;99216.16;;;11.88;91.69
73558;BME280;61829;53.286;10.434;2023-10-31T10:22:47;99228.97;;;11.93;92.34
73558;BME280;61829;53.286;10.434;2023-10-31T10:25:17;99246.25;;;11.92;93.19
73558;BME280;61829;53.286;10.434;2023-10-31T10:27:45;99252.00;;;11.96;93.10
73558;BME280;61829;53.286;10.434;2023-10-31T10:30:12;99256.31;;;11.97;93.02
73558;BME280;61829;53.286;10.434;2023-10-31T10:32:38;99267.03;;;12.03;92.95
73558;BME280;61829;53.286;10.434;2023-10-31T10:35:07;99265.03;;;12.10;93.40
73558;BME280;61829;53.286;10.434;2023-10-31T10:37:37;99286.41;;;12.00;92.79
73558;BME280;61829;53.286;10.434;2023-10-31T10:40:06;99294.03;;;12.03;92.71
73558;BME280;61829;53.286;10.434;2023-10-31T10:42:33;99300.59;;;12.07;92.06
73558;BME280;61829;53.286;10.434;2023-10-31T10:45:04;99303.19;;;12.14;92.26
73558;BME280;61829;53.286;10.434;2023-10-31T10:47:34;99305.78;;;12.21;92.44
73558;BME280;61829;53.286;10.434;2023-10-31T10:50:05;99316.72;;;12.26;92.39
73558;BME280;61829;53.286;10.434;2023-10-31T10:53:07;99317.28;;;12.28;91.73
73558;BME280;61829;53.286;10.434;2023-10-31T10:55:43;99323.16;;;12.36;91.28
73558;BME280;61829;53.286;10.434;2023-10-31T10:58:41;99338.34;;;12.49;91.19
73558;BME280;61829;53.286;10.434;2023-10-31T11:01:04;99329.06;;;12.69;91.58
73558;BME280;61829;53.286;10.434;2023-10-31T11:03:31;99336.69;;;12.84;90.70
73558;BME280;61829;53.286;10.434;2023-10-31T11:05:57;99336.00;;;12.88;89.29
73558;BME280;61829;53.286;10.434;2023-10-31T11:08:24;99354.66;;;12.90;89.04
73558;BME280;61829;53.286;10.434;2023-10-31T11:10:52;99353.59;;;12.91;88.05
73558;BME280;61829;53.286;10.434;2023-10-31T11:13:19;99362.19;;;12.88;88.10
73558;BME280;61829;53.286;10.434;2023-10-31T11:15:46;99366.44;;;12.84;88.02
73558;BME280;61829;53.286;10.434;2023-10-31T11:18:13;99368.66;;;12.87;88.73
73558;BME280;61829;53.286;10.434;2023-10-31T11:20:40;99377.25;;;12.84;89.20
73558;BME280;61829;53.286;10.434;2023-10-31T11:23:06;99387.94;;;12.78;88.94
73558;BME280;61829;53.286;10.434;2023-10-31T11:25:32;99388.75;;;12.67;88.22
73558;BME280;61829;53.286;10.434;2023-10-31T11:28:11;99398.97;;;12.53;88.89
73558;BME280;61829;53.286;10.434;2023-10-31T11:30:38;99400.25;;;12.51;89.31
73558;BME280;61829;53.286;10.434;2023-10-31T11:33:03;99409.41;;;12.50;89.36
73558;BME280;61829;53.286;10.434;2023-10-31T11:35:33;99427.72;;;12.48;89.81
73558;BME280;61829;53.286;10.434;2023-10-31T11:38:02;99424.69;;;12.44;90.86
73558;BME280;61829;53.286;10.434;2023-10-31T11:40:29;99430.44;;;12.48;91.31
73558;BME280;61829;53.286;10.434;2023-10-31T11:43:02;99437.72;;;12.47;91.62
73558;BME280;61829;53.286;10.434;2023-10-31T11:45:35;99443.47;;;12.51;91.78
73558;BME280;61829;53.286;10.434;2023-10-31T11:48:06;99448.78;;;12.57;91.67
73558;BME280;61829;53.286;10.434;2023-10-31T11:50:32;99453.03;;;12.65;92.10
73558;BME280;61829;53.286;10.434;2023-10-31T11:53:09;99450.56;;;12.75;91.42
73558;BME280;61829;53.286;10.434;2023-10-31T11:55:41;99468.56;;;12.81;91.94
73558;BME280;61829;53.286;10.434;2023-10-31T11:58:17;99475.53;;;12.89;91.12
73558;BME280;61829;53.286;10.434;2023-10-31T12:00:48;99481.53;;;12.91;90.43
73558;BME280;61829;53.286;10.434;2023-10-31T12:03:21;99486.09;;;12.91;88.51
73558;BME280;61829;53.286;10.434;2023-10-31T12:05:54;99483.16;;;12.92;88.12
73558;BME280;61829;53.286;10.434;2023-10-31T12:10:52;99495.72;;;12.87;86.81
73558;BME280;61829;53.286;10.434;2023-10-31T12:13:18;99495.25;;;12.90;86.23
73558;BME280;61829;53.286;10.434;2023-10-31T12:15:53;99500.44;;;12.91;85.67
73558;BME280;61829;53.286;10.434;2023-10-31T12:18:19;99504.78;;;12.92;85.85
73558;BME280;61829;53.286;10.434;2023-10-31T12:20:49;99514.06;;;12.85;85.03
73558;BME280;61829;53.286;10.434;2023-10-31T12:23:15;99518.75;;;12.77;84.46
73558;BME280;61829;53.286;10.434;2023-10-31T12:25:51;99528.97;;;12.75;85.31
73558;BME280;61829;53.286;10.434;2023-10-31T12:28:22;99527.09;;;12.76;85.47
73558;BME280;61829;53.286;10.434;2023-10-31T12:30:53;99543.16;;;12.71;85.56
73558;BME280;61829;53.286;10.434;2023-10-31T12:33:25;99543.06;;;12.66;85.44
73558;BME280;61829;53.286;10.434;2023-10-31T12:35:57;99545.63;;;12.61;85.41
73558;BME280;61829;53.286;10.434;2023-10-31T12:38:23;99551.63;;;12.63;86.65
73558;BME280;61829;53.286;10.434;2023-10-31T12:40:50;99548.94;;;12.63;86.64
73558;BME280;61829;53.286;10.434;2023-10-31T12:43:16;99552.19;;;12.65;86.98